createdAt,value
2023-02-03T00:01:01.585Z,96643.31
2023-02-03T00:03:31.071Z,96653.38
2023-02-03T00:06:02.743Z,96650.69
2023-02-03T00:08:33.039Z,96659.13
2023-02-03T00:11:04.196Z,96653.38
2023-02-03T00:13:33.968Z,96653.78
2023-02-03T00:16:03.408Z,96663.41
2023-02-03T00:18:33.201Z,96654.63
2023-02-03T00:21:02.603Z,96637.44
2023-02-03T00:23:32.783Z,96642.34
2023-02-03T00:26:10.709Z,96638.84
2023-02-03T00:28:41.116Z,96636.19
2023-02-03T00:31:18.438Z,96630.88
2023-02-03T00:33:49.205Z,96631.06
2023-02-03T00:36:20.215Z,96636.41
2023-02-03T00:38:50.071Z,96633.72
2023-02-03T00:41:22.934Z,96641.91
2023-02-03T00:43:55.630Z,96638.66
2023-02-03T00:46:25.129Z,96634.53
2023-02-03T00:48:54.523Z,96642.53
2023-02-03T00:51:23.976Z,96638.03
2023-02-03T00:53:53.372Z,96641.94
2023-02-03T00:56:24.305Z,96641.13
2023-02-03T00:58:53.837Z,96644.81
2023-02-03T01:01:23.407Z,96649.31
2023-02-03T01:03:52.969Z,96663.25
2023-02-03T01:06:23.355Z,96668.59
2023-02-03T01:08:53.339Z,96655.25
2023-02-03T01:11:28.055Z,96657.72
2023-02-03T01:14:01.626Z,96664.69
2023-02-03T01:16:36.230Z,96674.13
2023-02-03T01:19:06.314Z,96661.41
2023-02-03T01:21:36.272Z,96658.53
2023-02-03T01:24:06.193Z,96658.34
2023-02-03T01:26:37.286Z,96659.97
2023-02-03T01:29:06.658Z,96667.97
2023-02-03T01:31:40.095Z,96645.03
2023-02-03T01:34:16.267Z,96647.91
2023-02-03T01:36:46.804Z,96637.44
2023-02-03T01:39:16.431Z,96643.59
2023-02-03T01:41:48.952Z,96633.78
2023-02-03T01:44:43.588Z,96636.03
2023-02-03T01:47:24.769Z,96634.19
2023-02-03T01:50:05.600Z,96631.53
2023-02-03T01:52:36.845Z,96638.06
2023-02-03T01:55:12.387Z,96639.28
2023-02-03T01:57:48.276Z,96630.72
2023-02-03T02:00:19.324Z,96628.84
2023-02-03T02:02:50.145Z,96634.16
2023-02-03T02:05:28.675Z,96623.13
2023-02-03T02:08:00.486Z,96623.31
2023-02-03T02:10:31.941Z,96631.53
2023-02-03T02:13:06.075Z,96612.88
2023-02-03T02:15:52.202Z,96623.13
2023-02-03T02:18:49.345Z,96620.06
2023-02-03T02:21:52.654Z,96625.97
2023-02-03T02:25:15.821Z,96614.31
2023-02-03T02:28:49.260Z,96604.66
2023-02-03T02:31:55.548Z,96618.81
2023-02-03T02:34:41.162Z,96617.41
2023-02-03T02:37:25.905Z,96623.94
2023-02-03T02:40:09.602Z,96629.28
2023-02-03T02:43:02.029Z,96631.13
2023-02-03T02:45:46.485Z,96630.91
2023-02-03T02:48:29.010Z,96632.75
2023-02-03T02:51:01.571Z,96630.09
2023-02-03T02:53:37.505Z,96618.22
2023-02-03T02:56:11.738Z,96604.06
2023-02-03T02:58:47.201Z,96616.38
2023-02-03T03:01:17.950Z,96611.25
2023-02-03T03:03:50.010Z,96615.75
2023-02-03T03:06:26.108Z,96603.25
2023-02-03T03:09:01.715Z,96616.59
2023-02-03T03:11:36.682Z,96625.38
2023-02-03T03:14:09.260Z,96607.56
2023-02-03T03:16:44.474Z,96611.25
2023-02-03T03:19:20.548Z,96612.06
2023-02-03T03:21:56.789Z,96608.78
2023-02-03T03:24:33.733Z,96605.72
2023-02-03T03:27:10.420Z,96623.13
2023-02-03T03:29:44.594Z,96622.31
2023-02-03T03:32:14.364Z,96623.34
2023-02-03T03:34:45.270Z,96607.56
2023-02-03T03:37:21.307Z,96601.00
2023-02-03T03:39:57.858Z,96590.97
2023-02-03T03:42:35.321Z,96586.47
2023-02-03T03:45:14.611Z,96590.16
2023-02-03T03:47:52.206Z,96584.59
2023-02-03T03:50:28.428Z,96594.00
2023-02-03T03:53:02.727Z,96596.47
2023-02-03T03:55:36.427Z,96593.44
2023-02-03T03:58:11.364Z,96610.81
2023-02-03T04:00:43.134Z,96601.63
2023-02-03T04:03:17.937Z,96601.00
2023-02-03T04:05:48.901Z,96596.69
2023-02-03T04:08:18.356Z,96615.53
2023-02-03T04:10:48.310Z,96622.91
2023-02-03T04:13:20.168Z,96623.31
2023-02-03T04:15:49.708Z,96625.78
2023-02-03T04:18:20.467Z,96631.72
2023-02-03T04:20:51.675Z,96627.22
2023-02-03T04:23:21.065Z,96627.81
2023-02-03T04:25:50.615Z,96635.41
2023-02-03T04:28:20.072Z,96641.75
2023-02-03T04:30:49.464Z,96660.03
2023-02-03T04:33:18.907Z,96645.66
2023-02-03T04:35:48.323Z,96637.63
2023-02-03T04:38:19.101Z,96622.69
2023-02-03T04:40:48.563Z,96623.50
2023-02-03T04:43:18.014Z,96639.50
2023-02-03T04:45:47.485Z,96638.88
2023-02-03T04:48:17.008Z,96643.59
2023-02-03T04:50:46.438Z,96643.16
2023-02-03T04:53:16.168Z,96642.94
2023-02-03T04:55:49.855Z,96634.16
2023-02-03T04:58:19.293Z,96634.94
2023-02-03T05:00:48.894Z,96639.06
2023-02-03T05:03:18.381Z,96629.84
2023-02-03T05:05:47.855Z,96636.38
2023-02-03T05:08:17.423Z,96628.84
2023-02-03T05:10:48.231Z,96631.47
2023-02-03T05:13:17.622Z,96646.03
2023-02-03T05:15:47.023Z,96647.47
2023-02-03T05:18:16.446Z,96648.25
2023-02-03T05:20:45.919Z,96653.19
2023-02-03T05:23:15.326Z,96657.06
2023-02-03T05:25:46.347Z,96645.81
2023-02-03T05:28:17.154Z,96651.75
2023-02-03T05:30:47.005Z,96633.94
2023-02-03T05:33:16.530Z,96622.47
2023-02-03T05:35:46.076Z,96627.38
2023-02-03T05:38:15.591Z,96629.22
2023-02-03T05:41:02.688Z,96614.06
2023-02-03T05:43:33.528Z,96628.81
2023-02-03T05:46:03.190Z,96608.31
2023-02-03T05:48:33.909Z,96607.09
2023-02-03T05:51:03.627Z,96595.22
2023-02-03T05:53:33.050Z,96603.59
2023-02-03T05:56:02.423Z,96607.09
2023-02-03T05:58:33.363Z,96597.06
2023-02-03T06:01:02.818Z,96598.28
2023-02-03T06:03:32.425Z,96599.31
2023-02-03T06:06:01.859Z,96602.38
2023-02-03T06:08:31.248Z,96623.69
2023-02-03T06:11:01.082Z,96621.88
2023-02-03T06:13:32.268Z,96629.19
2023-02-03T06:16:01.745Z,96596.66
2023-02-03T06:18:31.572Z,96603.81
2023-02-03T06:21:01.047Z,96604.03
2023-02-03T06:23:31.062Z,96623.91
2023-02-03T06:26:01.109Z,96612.81
2023-02-03T06:28:33.583Z,96619.38
2023-02-03T06:31:03.145Z,96619.19
2023-02-03T06:33:33.617Z,96624.91
2023-02-03T06:36:03.095Z,96610.75
2023-02-03T06:38:32.678Z,96610.97
2023-02-03T06:41:02.207Z,96577.41
2023-02-03T06:43:33.188Z,96584.97
2023-02-03T06:46:02.994Z,96595.00
2023-02-03T06:48:32.461Z,96599.75
2023-02-03T06:51:02.026Z,96605.69
2023-02-03T06:53:31.625Z,96629.44
2023-02-03T06:56:02.150Z,96641.53
2023-02-03T06:58:33.045Z,96642.16
2023-02-03T07:01:02.880Z,96650.31
2023-02-03T07:03:32.423Z,96631.50
2023-02-03T07:06:04.134Z,96617.97
2023-02-03T07:08:35.812Z,96620.84
2023-02-03T07:11:06.849Z,96620.00
2023-02-03T07:13:37.738Z,96615.31
2023-02-03T07:16:08.428Z,96613.03
2023-02-03T07:18:53.329Z,96607.94
2023-02-03T07:21:22.834Z,96592.78
2023-02-03T07:23:52.381Z,96595.44
2023-02-03T07:26:23.011Z,96596.47
2023-02-03T07:28:54.549Z,96583.16
2023-02-03T07:31:24.213Z,96574.78
2023-02-03T07:33:54.012Z,96547.72
2023-02-03T07:36:25.281Z,96556.72
2023-02-03T07:38:54.769Z,96549.97
2023-02-03T07:41:24.275Z,96552.44
2023-02-03T07:43:55.162Z,96552.22
2023-02-03T07:46:24.641Z,96567.00
2023-02-03T07:48:54.183Z,96562.69
2023-02-03T07:51:23.819Z,96560.00
2023-02-03T07:53:53.329Z,96559.78
2023-02-03T07:56:22.747Z,96561.03
2023-02-03T07:58:55.179Z,96573.53
2023-02-03T08:01:24.625Z,96564.31
2023-02-03T08:03:55.192Z,96581.94
2023-02-03T08:06:24.822Z,96580.72
2023-02-03T08:08:54.840Z,96586.03
2023-02-03T08:11:24.446Z,96589.13
2023-02-03T08:13:55.240Z,96594.81
2023-02-03T08:16:24.688Z,96591.53
2023-02-03T08:18:54.154Z,96616.97
2023-02-03T08:21:23.575Z,96622.31
2023-02-03T08:23:53.019Z,96617.19
2023-02-03T08:26:22.425Z,96620.25
2023-02-03T08:28:52.342Z,96611.84
2023-02-03T08:31:23.539Z,96611.69
2023-02-03T08:33:53.068Z,96615.53
2023-02-03T08:36:22.672Z,96620.25
2023-02-03T08:38:52.078Z,96622.72
2023-02-03T08:41:21.441Z,96616.38
2023-02-03T08:43:50.865Z,96608.56
2023-02-03T08:46:20.291Z,96614.31
2023-02-03T08:48:52.882Z,96593.59
2023-02-03T08:51:22.322Z,96581.91
2023-02-03T08:53:51.814Z,96564.47
2023-02-03T08:56:21.389Z,96570.41
2023-02-03T08:58:51.035Z,96567.72
2023-02-03T09:01:20.598Z,96574.66
2023-02-03T09:03:51.418Z,96569.94
2023-02-03T09:06:24.106Z,96564.81
2023-02-03T09:08:54.774Z,96584.72
2023-02-03T09:11:24.599Z,96582.44
2023-02-03T09:13:54.045Z,96581.41
2023-02-03T09:16:23.600Z,96570.13
2023-02-03T09:18:54.393Z,96562.31
2023-02-03T09:21:41.588Z,96570.31
2023-02-03T09:24:13.714Z,96558.56
2023-02-03T09:26:43.303Z,96567.63
2023-02-03T09:29:13.050Z,96572.31
2023-02-03T09:31:42.751Z,96584.63
2023-02-03T09:34:13.570Z,96561.63
2023-02-03T09:36:43.297Z,96563.63
2023-02-03T09:39:12.923Z,96572.28
2023-02-03T09:42:16.740Z,96567.94
2023-02-03T09:45:00.220Z,96567.88
2023-02-03T09:47:33.689Z,96553.28
2023-02-03T09:50:07.907Z,96573.81
2023-02-03T09:52:40.515Z,96576.66
2023-02-03T09:55:29.259Z,96560.44
2023-02-03T09:58:07.277Z,96553.84
2023-02-03T10:00:43.537Z,96555.81
2023-02-03T10:03:28.427Z,96555.19
2023-02-03T10:06:24.505Z,96547.56
2023-02-03T10:09:35.420Z,96551.09
2023-02-03T10:12:41.959Z,96575.34
2023-02-03T10:15:58.031Z,96598.63
2023-02-03T10:18:33.657Z,96573.31
2023-02-03T10:21:14.457Z,96569.84
2023-02-03T10:23:46.570Z,96566.38
2023-02-03T10:26:21.762Z,96578.06
2023-02-03T10:28:57.305Z,96573.09
2023-02-03T10:31:29.731Z,96567.31
2023-02-03T10:34:10.796Z,96548.81
2023-02-03T10:36:56.752Z,96551.09
2023-02-03T10:39:37.590Z,96552.72
2023-02-03T10:42:08.264Z,96554.75
2023-02-03T10:44:42.397Z,96555.78
2023-02-03T10:47:28.407Z,96539.09
2023-02-03T10:50:00.283Z,96540.56
2023-02-03T10:52:34.991Z,96538.09
2023-02-03T10:55:31.201Z,96558.03
2023-02-03T10:58:17.348Z,96554.75
2023-02-03T11:00:47.230Z,96589.88
2023-02-03T11:03:27.257Z,96579.72
2023-02-03T11:06:11.228Z,96586.91
2023-02-03T11:08:45.947Z,96596.03
2023-02-03T11:11:24.547Z,96563.16
2023-02-03T11:13:57.280Z,96571.28
2023-02-03T11:16:26.831Z,96562.41
2023-02-03T11:19:00.114Z,96556.50
2023-02-03T11:21:32.437Z,96565.50
2023-02-03T11:24:14.688Z,96542.09
2023-02-03T11:26:50.334Z,96539.63
2023-02-03T11:29:25.521Z,96544.69
2023-02-03T11:31:57.853Z,96530.16
2023-02-03T11:34:32.448Z,96515.75
2023-02-03T11:37:27.388Z,96512.41
2023-02-03T11:40:19.006Z,96491.72
2023-02-03T11:43:04.753Z,96482.50
2023-02-03T11:45:42.277Z,96477.66
2023-02-03T11:48:29.892Z,96476.50
2023-02-03T11:51:16.108Z,96469.59
2023-02-03T11:54:07.086Z,96473.13
2023-02-03T11:57:07.811Z,96484.59
2023-02-03T11:59:58.128Z,96475.97
2023-02-03T12:03:58.537Z,96473.91
2023-02-03T12:07:07.657Z,96505.16
2023-02-03T12:09:51.650Z,96481.53
2023-02-03T12:12:44.428Z,96463.69
2023-02-03T12:15:46.704Z,96449.50
2023-02-03T12:18:36.632Z,96458.34
2023-02-03T12:21:35.046Z,96468.81
2023-02-03T12:24:20.095Z,96456.06
2023-02-03T12:27:03.051Z,96471.41
2023-02-03T12:29:43.195Z,96424.47
2023-02-03T12:32:26.084Z,96454.34
2023-02-03T12:35:05.505Z,96413.03
2023-02-03T12:37:48.989Z,96408.38
2023-02-03T12:40:36.699Z,96420.41
2023-02-03T12:43:27.447Z,96401.69
2023-02-03T12:46:05.436Z,96400.41
2023-02-03T12:48:48.577Z,96405.16
2023-02-03T12:51:32.083Z,96394.78
2023-02-03T12:54:07.553Z,96393.44
2023-02-03T12:56:43.421Z,96388.41
2023-02-03T12:59:21.015Z,96376.13
2023-02-03T13:01:59.295Z,96391.34
2023-02-03T13:04:37.866Z,96356.59
2023-02-03T13:07:17.829Z,96368.56
2023-02-03T13:10:00.773Z,96351.53
2023-02-03T13:12:35.294Z,96362.81
2023-02-03T13:15:26.247Z,96353.78
2023-02-03T13:18:05.131Z,96349.84
2023-02-03T13:20:37.517Z,96351.41
2023-02-03T13:23:13.435Z,96345.03
2023-02-03T13:26:07.736Z,96361.88
2023-02-03T13:29:01.093Z,96351.84
2023-02-03T13:31:51.180Z,96355.56
2023-02-03T13:34:54.482Z,96361.63
2023-02-03T13:38:24.958Z,96339.81
2023-02-03T13:41:04.524Z,96334.25
2023-02-03T13:43:39.187Z,96331.78
2023-02-03T13:46:22.242Z,96322.59
2023-02-03T13:48:52.860Z,96321.06
2023-02-03T13:51:34.009Z,96328.63
2023-02-03T13:54:07.780Z,96312.44
2023-02-03T13:56:37.514Z,96317.56
2023-02-03T13:59:31.746Z,96310.34
2023-02-03T14:02:53.915Z,96297.66
2023-02-03T14:05:48.896Z,96304.63
2023-02-03T14:08:54.054Z,96270.50
2023-02-03T14:11:46.730Z,96292.09
2023-02-03T14:15:04.502Z,96290.47
2023-02-03T14:18:36.107Z,96280.41
2023-02-03T14:21:19.550Z,96282.03
2023-02-03T14:24:10.775Z,96249.03
2023-02-03T14:26:46.159Z,96247.16
2023-02-03T14:29:29.463Z,96246.94
2023-02-03T14:32:02.692Z,96282.47
2023-02-03T14:34:35.327Z,96295.25
2023-02-03T14:37:22.885Z,96292.13
2023-02-03T14:40:28.731Z,96298.06
2023-02-03T14:43:20.990Z,96302.22
2023-02-03T14:46:37.466Z,96296.66
2023-02-03T14:49:42.644Z,96287.22
2023-02-03T14:52:44.847Z,96287.06
2023-02-03T14:55:39.690Z,96274.09
2023-02-03T14:58:27.500Z,96271.66
2023-02-03T15:00:58.551Z,96252.94
2023-02-03T15:03:31.014Z,96252.66
2023-02-03T15:06:04.842Z,96254.06
2023-02-03T15:08:47.935Z,96244.44
2023-02-03T15:11:28.408Z,96267.44
2023-02-03T15:14:26.103Z,96235.59
2023-02-03T15:17:00.163Z,96260.47
2023-02-03T15:19:35.174Z,96269.06
2023-02-03T15:22:23.014Z,96248.00
2023-02-03T15:24:56.983Z,96262.97
2023-02-03T15:27:30.973Z,96247.75
2023-02-03T15:30:15.947Z,96285.75
2023-02-03T15:32:57.074Z,96296.50
2023-02-03T15:35:31.604Z,96290.66
2023-02-03T15:38:05.447Z,96281.22
2023-02-03T15:40:43.955Z,96292.41
2023-02-03T15:43:22.752Z,96277.78
2023-02-03T15:46:07.406Z,96298.13
2023-02-03T15:48:44.689Z,96270.81
2023-02-03T15:51:20.445Z,96271.84
2023-02-03T15:53:58.610Z,96279.13
2023-02-03T15:56:38.085Z,96299.44
2023-02-03T15:59:23.190Z,96303.91
2023-02-03T16:01:53.340Z,96300.84
2023-02-03T16:04:25.637Z,96284.59
2023-02-03T16:06:57.237Z,96282.97
2023-02-03T16:09:35.479Z,96290.81
2023-02-03T16:12:17.542Z,96320.56
2023-02-03T16:14:48.547Z,96281.19
2023-02-03T16:17:34.569Z,96293.94
2023-02-03T16:20:28.535Z,96293.38
2023-02-03T16:23:07.551Z,96306.94
2023-02-03T16:25:37.191Z,96307.28
2023-02-03T16:28:35.732Z,96300.16
2023-02-03T16:31:35.645Z,96290.97
2023-02-03T16:34:33.731Z,96323.00
2023-02-03T16:37:21.293Z,96303.66
2023-02-03T16:40:08.285Z,96311.50
2023-02-03T16:42:58.794Z,96305.56
2023-02-03T16:45:45.756Z,96311.50
2023-02-03T16:48:34.254Z,96320.31
2023-02-03T16:51:13.211Z,96322.19
2023-02-03T16:53:44.670Z,96338.63
2023-02-03T16:56:14.744Z,96348.06
2023-02-03T16:58:44.976Z,96359.53
2023-02-03T17:01:14.796Z,96357.47
2023-02-03T17:03:46.764Z,96349.47
2023-02-03T17:06:16.226Z,96339.44
2023-02-03T17:08:45.613Z,96340.09
2023-02-03T17:11:19.471Z,96351.78
2023-02-03T17:13:49.863Z,96335.63
2023-02-03T17:16:22.880Z,96349.78
2023-02-03T17:18:54.337Z,96352.06
2023-02-03T17:21:28.710Z,96365.56
2023-02-03T17:23:59.545Z,96359.19
2023-02-03T17:26:29.391Z,96348.13
2023-02-03T17:29:03.489Z,96362.16
2023-02-03T17:31:33.826Z,96355.53
2023-02-03T17:34:04.608Z,96374.91
2023-02-03T17:36:34.111Z,96356.44
2023-02-03T17:55:34.949Z,96356.50
2023-02-03T17:58:04.292Z,96372.13
2023-02-03T18:00:33.743Z,96380.53
2023-02-03T18:03:03.943Z,96383.22
2023-02-03T18:05:36.960Z,96372.16
2023-02-03T18:08:16.189Z,96367.47
2023-02-03T18:10:46.343Z,96369.34
2023-02-03T18:13:17.928Z,96372.44
2023-02-03T18:15:47.433Z,96366.94
2023-02-03T18:18:16.845Z,96364.06
2023-02-03T18:20:47.735Z,96364.53
2023-02-03T18:23:17.174Z,96359.78
2023-02-03T18:25:46.991Z,96341.94
2023-02-03T18:28:16.538Z,96357.13
2023-02-03T18:30:46.175Z,96363.84
2023-02-03T18:33:16.165Z,96372.66
2023-02-03T18:35:47.068Z,96376.78
2023-02-03T18:38:16.575Z,96378.00
2023-02-03T18:40:46.090Z,96385.38
2023-02-03T18:43:15.486Z,96395.84
2023-02-03T18:45:45.034Z,96387.03
2023-02-03T18:48:14.552Z,96354.59
2023-02-03T18:50:44.593Z,96378.56
2023-02-03T18:53:15.504Z,96373.91
2023-02-03T18:55:45.816Z,96373.28
2023-02-03T18:58:15.417Z,96376.97
2023-02-03T19:00:44.915Z,96373.09
2023-02-03T19:03:14.385Z,96372.91
2023-02-03T19:05:44.517Z,96381.31
2023-02-03T19:08:15.347Z,96388.75
2023-02-03T19:10:45.015Z,96386.66
2023-02-03T19:13:14.480Z,96401.25
2023-02-03T19:15:44.862Z,96399.03
2023-02-03T19:18:15.339Z,96385.50
2023-02-03T19:20:46.045Z,96400.69
2023-02-03T19:23:16.909Z,96401.50
2023-02-03T19:25:51.285Z,96425.53
2023-02-03T19:28:30.472Z,96391.88
2023-02-03T19:31:08.494Z,96389.66
2023-02-03T19:33:38.811Z,96400.75
2023-02-03T19:36:10.340Z,96405.22
2023-02-03T19:38:41.186Z,96413.00
2023-02-03T19:41:11.725Z,96419.97
2023-02-03T19:43:41.326Z,96420.56
2023-02-03T19:46:10.722Z,96400.06
2023-02-03T19:48:41.555Z,96399.66
2023-02-03T19:51:12.072Z,96396.78
2023-02-03T19:53:42.781Z,96404.84
2023-02-03T19:56:12.244Z,96399.31
2023-02-03T19:58:41.736Z,96407.91
2023-02-03T20:01:12.648Z,96417.75
2023-02-03T20:03:43.837Z,96426.38
2023-02-03T20:06:13.578Z,96433.97
2023-02-03T20:08:44.595Z,96413.44
2023-02-03T20:11:14.522Z,96412.03
2023-02-03T20:13:43.976Z,96419.19
2023-02-03T20:16:13.718Z,96407.72
2023-02-03T20:18:43.166Z,96411.41
2023-02-03T20:21:13.524Z,96435.41
2023-02-03T20:23:44.834Z,96423.91
2023-02-03T20:26:14.501Z,96423.50
2023-02-03T20:28:45.870Z,96402.19
2023-02-03T20:31:15.561Z,96402.41
2023-02-03T20:33:45.124Z,96391.75
2023-02-03T20:36:14.669Z,96405.06
2023-02-03T20:38:46.835Z,96388.88
2023-02-03T20:41:19.510Z,96406.50
2023-02-03T20:43:49.440Z,96401.59
2023-02-03T20:46:20.565Z,96408.97
2023-02-03T20:48:50.021Z,96384.16
2023-02-03T20:51:22.273Z,96380.69
2023-02-03T20:53:53.188Z,96390.72
2023-02-03T20:56:23.122Z,96423.72
2023-02-03T20:58:54.286Z,96393.38
2023-02-03T21:01:23.959Z,96374.13
2023-02-03T21:04:11.999Z,96370.44
2023-02-03T21:06:41.448Z,96365.72
2023-02-03T21:09:19.566Z,96382.91
2023-02-03T21:11:49.139Z,96420.84
2023-02-03T21:14:22.039Z,96433.13
2023-02-03T21:16:53.937Z,96428.38
2023-02-03T21:19:31.059Z,96415.69
2023-02-03T21:22:03.546Z,96413.44
2023-02-03T21:24:37.802Z,96418.16
2023-02-03T21:27:28.625Z,96409.09
2023-02-03T21:29:59.634Z,96412.59
2023-02-03T21:32:39.172Z,96402.34
2023-02-03T21:35:25.615Z,96400.13
2023-02-03T21:38:01.820Z,96388.44
2023-02-03T21:40:35.318Z,96390.44
2023-02-03T21:43:04.799Z,96413.66
2023-02-03T21:45:42.407Z,96403.00
2023-02-03T21:48:33.075Z,96405.47
2023-02-03T21:51:05.258Z,96389.69
2023-02-03T21:53:36.261Z,96400.34
2023-02-03T21:56:20.635Z,96425.97
2023-02-03T21:58:52.068Z,96395.22
2023-02-03T22:01:23.033Z,96393.38
2023-02-03T22:03:54.205Z,96408.34
2023-02-03T22:06:28.095Z,96406.50
2023-02-03T22:08:59.654Z,96405.13
2023-02-03T22:11:33.122Z,96410.00
2023-02-03T22:14:02.575Z,96408.75
2023-02-03T22:16:32.165Z,96412.03
2023-02-03T22:19:01.613Z,96402.00
2023-02-03T22:21:31.058Z,96406.72
2023-02-03T22:24:00.670Z,96411.63
2023-02-03T22:26:31.624Z,96416.16
2023-02-03T22:29:02.244Z,96413.09
2023-02-03T22:31:31.908Z,96430.09
2023-02-03T22:34:01.320Z,96428.84
2023-02-03T22:36:30.772Z,96405.91
2023-02-03T22:39:00.219Z,96414.50
2023-02-03T22:41:31.027Z,96428.22
2023-02-03T22:44:00.513Z,96418.81
2023-02-03T22:46:29.958Z,96417.56
2023-02-03T22:48:59.402Z,96409.38
2023-02-03T22:51:28.766Z,96420.03
2023-02-03T22:53:58.236Z,96429.91
2023-02-03T22:56:27.941Z,96435.81
2023-02-03T22:58:58.663Z,96430.72
2023-02-03T23:01:28.407Z,96430.53
2023-02-03T23:03:57.896Z,96429.91
2023-02-03T23:06:27.332Z,96423.78
2023-02-03T23:08:56.747Z,96433.81
2023-02-03T23:11:26.443Z,96432.38
2023-02-03T23:13:55.928Z,96453.88
2023-02-03T23:16:26.823Z,96446.09
2023-02-03T23:18:56.181Z,96439.53
2023-02-03T23:21:25.834Z,96428.69
2023-02-03T23:23:55.274Z,96452.66
2023-02-03T23:26:24.827Z,96452.03
2023-02-03T23:28:54.264Z,96456.75
2023-02-03T23:31:24.084Z,96449.81
2023-02-03T23:34:12.395Z,96448.97
2023-02-03T23:36:41.785Z,96460.44
2023-02-03T23:39:11.292Z,96467.41
2023-02-03T23:41:40.674Z,96470.25
2023-02-03T23:44:10.940Z,96462.28
2023-02-03T23:46:40.417Z,96451.63
2023-02-03T23:49:11.269Z,96445.06
2023-02-03T23:51:40.619Z,96454.50
2023-02-03T23:54:10.049Z,96453.06
2023-02-03T23:56:39.671Z,96458.19
2023-02-03T23:59:09.523Z,96465.75
